Time;durP1;ratioP1;P1;durP2;ratioP2;P2;SDS_P1;SDS_P2;PMS_P1;PMS_P2;Temp;Humidity;BMP_temperature;BMP_pressure;BME280_temperature;BME280_humidity;BME280_pressure;Samples;Min_cycle;Max_cycle;Signal;HPM_P1;HPM_P2
2022/09/22 00:01:36;;;;;;;6.22;2.80;;;10.40;99.90;;;;;;5052624;28;20033;-63
2022/09/22 00:04:06;;;;;;;6.68;2.70;;;10.40;99.90;;;;;;5052569;28;20443;-63
2022/09/22 00:06:36;;;;;;;5.63;3.08;;;10.30;99.90;;;;;;5052515;28;20537;-64
2022/09/22 00:09:03;;;;;;;4.03;2.50;;;10.30;99.90;;;;;;5052737;28;20432;-64
2022/09/22 00:11:34;;;;;;;9.07;2.67;;;10.30;99.90;;;;;;5052417;28;20100;-63
2022/09/22 00:14:10;;;;;;;3.33;2.15;;;10.30;99.90;;;;;;5051289;28;20026;-64
2022/09/22 00:16:44;;;;;;;5.10;2.63;;;10.30;99.90;;;;;;5053010;28;20021;-62
2022/09/22 00:19:17;;;;;;;4.30;2.47;;;10.30;99.90;;;;;;5052468;28;20067;-63
2022/09/22 00:21:43;;;;;;;4.30;2.47;;;10.20;99.90;;;;;;5052483;28;20477;-64
2022/09/22 00:24:09;;;;;;;5.35;2.90;;;10.10;99.90;;;;;;5052763;28;20033;-64
2022/09/22 00:26:36;;;;;;;5.20;2.60;;;10.10;99.90;;;;;;5053045;28;20078;-64
2022/09/22 00:29:04;;;;;;;4.80;2.75;;;10.10;99.90;;;;;;5052598;28;20051;-63
2022/09/22 00:31:29;;;;;;;12.07;2.88;;;10.10;99.90;;;;;;5052910;28;20057;-63
2022/09/22 00:33:55;;;;;;;5.73;2.80;;;10.10;99.90;;;;;;5056103;28;20059;-63
2022/09/22 00:36:24;;;;;;;5.25;2.70;;;10.00;99.90;;;;;;5055937;28;20521;-63
2022/09/22 00:38:50;;;;;;;4.85;2.72;;;10.00;99.90;;;;;;5055978;28;20443;-64
2022/09/22 00:41:23;;;;;;;6.63;2.83;;;10.00;99.90;;;;;;5055785;28;20097;-63
2022/09/22 00:44:10;;;;;;;3.63;2.33;;;10.00;99.90;;;;;;5055947;28;20389;-63
2022/09/22 00:46:40;;;;;;;4.18;2.58;;;9.90;99.90;;;;;;5055736;28;20029;-63
2022/09/22 00:49:07;;;;;;;4.97;2.70;;;9.90;99.90;;;;;;5055720;28;20033;-64
2022/09/22 00:51:37;;;;;;;4.47;2.47;;;9.90;99.90;;;;;;5055491;28;20033;-63
2022/09/22 00:54:07;;;;;;;4.65;2.65;;;9.80;99.90;;;;;;5055793;28;20037;-61
2022/09/22 00:56:41;;;;;;;4.15;2.75;;;9.80;99.90;;;;;;5055540;28;20024;-63
2022/09/22 00:59:16;;;;;;;6.43;2.80;;;9.80;99.90;;;;;;5077963;22;20045;-64
2022/09/22 01:01:43;;;;;;;4.43;2.05;;;9.80;99.90;;;;;;5055878;28;20028;-64
2022/09/22 01:04:08;;;;;;;7.20;2.50;;;9.70;99.90;;;;;;5056265;28;20028;-64
2022/09/22 01:06:37;;;;;;;4.23;2.57;;;9.70;99.90;;;;;;5055809;28;20036;-65
2022/09/22 01:09:03;;;;;;;4.57;2.40;;;9.70;99.90;;;;;;5055315;28;20507;-63
2022/09/22 01:11:29;;;;;;;8.95;2.65;;;9.60;99.90;;;;;;5055585;28;20060;-64
2022/09/22 01:14:06;;;;;;;6.20;2.67;;;9.60;99.90;;;;;;5055415;28;20375;-62
2022/09/22 01:16:49;;;;;;;4.57;2.70;;;9.50;99.90;;;;;;5055302;28;20030;-65
2022/09/22 01:19:59;;;;;;;4.57;2.58;;;9.40;99.90;;;;;;5055450;28;20478;-65
2022/09/22 01:22:40;;;;;;;5.30;2.85;;;9.40;99.90;;;;;;5055272;28;20124;-64
2022/09/22 01:25:12;;;;;;;6.15;2.72;;;9.40;99.90;;;;;;5055160;28;20021;-62
2022/09/22 01:28:07;;;;;;;8.15;2.90;;;9.40;99.90;;;;;;5037004;28;20112;-63
2022/09/22 01:30:46;;;;;;;4.25;2.75;;;9.40;99.90;;;;;;5055236;28;20037;-63
2022/09/22 01:33:25;;;;;;;6.63;3.00;;;9.40;99.90;;;;;;5054980;28;20067;-64
2022/09/22 01:36:06;;;;;;;5.18;2.78;;;9.20;99.90;;;;;;5055016;28;20025;-64
2022/09/22 01:38:57;;;;;;;5.95;3.00;;;9.20;99.90;;;;;;5054985;28;20021;-65
2022/09/22 01:41:43;;;;;;;7.97;3.10;;;9.10;99.90;;;;;;5055576;28;20031;-62
2022/09/22 01:44:33;;;;;;;4.32;2.90;;;9.00;99.90;;;;;;5006209;28;20067;-63
2022/09/22 01:47:13;;;;;;;9.40;3.63;;;9.00;99.90;;;;;;5054325;28;20037;-64
2022/09/22 01:49:44;;;;;;;6.93;3.33;;;8.90;99.90;;;;;;5054791;28;20112;-64
2022/09/22 01:52:16;;;;;;;4.07;2.80;;;8.90;99.90;;;;;;5036741;28;20432;-64
2022/09/22 01:54:52;;;;;;;5.05;2.97;;;8.90;99.90;;;;;;5054691;28;20065;-63
2022/09/22 01:57:36;;;;;;;6.10;3.17;;;8.90;99.90;;;;;;5036591;28;20021;-65
2022/09/22 02:00:06;;;;;;;5.40;2.90;;;8.80;99.90;;;;;;5054484;28;20485;-64
2022/09/22 02:02:41;;;;;;;4.72;2.95;;;8.90;99.90;;;;;;5036925;28;20021;-65
2022/09/22 02:05:13;;;;;;;7.53;2.80;;;8.90;99.90;;;;;;5054535;28;20127;-64
2022/09/22 02:07:44;;;;;;;6.80;2.90;;;8.90;99.90;;;;;;5036735;28;20436;-64
2022/09/22 02:10:13;;;;;;;4.55;2.65;;;8.80;99.90;;;;;;5036319;28;20115;-64
2022/09/22 02:12:39;;;;;;;6.85;3.00;;;8.90;99.90;;;;;;5054074;28;20481;-63
2022/09/22 02:15:58;;;;;;;5.60;3.15;;;8.90;99.90;;;;;;5054040;28;20048;-63
2022/09/22 02:17:59;;;;;;;6.50;3.00;;;8.80;99.90;;;;;;5053728;28;20091;-64
2022/09/22 02:20:25;;;;;;;5.60;3.00;;;8.70;99.90;;;;;;5036465;28;20362;-63
2022/09/22 02:22:52;;;;;;;4.70;2.88;;;8.80;99.90;;;;;;5054395;28;20017;-63
2022/09/22 02:25:19;;;;;;;5.65;2.85;;;8.80;99.90;;;;;;5053993;28;20037;-63
2022/09/22 02:27:46;;;;;;;7.10;2.95;;;8.80;99.90;;;;;;5036341;28;20021;-66
2022/09/22 02:30:13;;;;;;;7.68;3.05;;;8.80;99.90;;;;;;5036256;28;20029;-65
2022/09/22 02:32:42;;;;;;;5.35;2.80;;;8.80;99.90;;;;;;5053977;28;20032;-65
2022/09/22 02:35:08;;;;;;;6.72;3.05;;;8.80;99.90;;;;;;5035827;28;20113;-65
2022/09/22 02:37:53;;;;;;;;;;;8.80;99.90;;;;;;5054244;28;20029;-64
2022/09/22 02:40:29;;;;;;;4.90;3.28;;;8.80;99.90;;;;;;5054296;28;19911;-66
2022/09/22 02:43:23;;;;;;;6.22;3.03;;;8.70;99.90;;;;;;5054884;28;20474;-66
2022/09/22 02:46:02;;;;;;;3.63;2.70;;;8.70;99.90;;;;;;5036642;28;20029;-66
2022/09/22 02:48:34;;;;;;;5.50;2.95;;;8.60;99.90;;;;;;5056387;28;20473;-66
2022/09/22 02:51:00;;;;;;;5.72;3.00;;;8.60;99.90;;;;;;5056632;28;20033;-66
2022/09/22 02:53:26;;;;;;;3.93;3.13;;;8.50;99.90;;;;;;5060690;28;20029;-66
2022/09/22 02:55:51;;;;;;;5.73;2.97;;;8.50;99.90;;;;;;5055692;28;20028;-66
2022/09/22 02:58:17;;;;;;;5.67;3.10;;;8.50;99.90;;;;;;5054840;28;20392;-66
2022/09/22 03:00:44;;;;;;;4.87;3.10;;;8.50;99.90;;;;;;5055417;28;20381;-66
2022/09/22 03:03:10;;;;;;;7.05;3.08;;;8.40;99.90;;;;;;5036702;28;20021;-66
2022/09/22 03:05:36;;;;;;;5.00;3.28;;;8.40;99.90;;;;;;5054853;28;20436;-65
2022/09/22 03:08:02;;;;;;;6.80;3.05;;;8.50;99.90;;;;;;5054816;28;20032;-65
2022/09/22 03:10:28;;;;;;;6.47;3.10;;;8.40;99.90;;;;;;5053956;28;20036;-65
2022/09/22 03:12:53;;;;;;;5.33;3.33;;;8.40;99.90;;;;;;5054440;28;20100;-66
2022/09/22 03:15:19;;;;;;;8.70;3.03;;;8.30;99.90;;;;;;5054325;28;20028;-67
2022/09/22 03:17:46;;;;;;;7.23;2.93;;;8.20;99.90;;;;;;5036226;28;20051;-66
2022/09/22 03:20:13;;;;;;;6.75;4.18;;;8.30;99.90;;;;;;5036306;28;20051;-66
2022/09/22 03:22:39;;;;;;;4.63;2.88;;;8.30;99.90;;;;;;5054815;28;20380;-65
2022/09/22 03:25:05;;;;;;;3.70;2.87;;;8.30;99.90;;;;;;5055431;28;20096;-67
2022/09/22 03:27:31;;;;;;;7.18;3.33;;;8.30;99.90;;;;;;5053348;28;20278;-67
2022/09/22 03:29:56;;;;;;;6.10;3.50;;;8.30;99.90;;;;;;5035530;28;20040;-67
2022/09/22 03:32:22;;;;;;;5.57;3.17;;;8.20;99.90;;;;;;5054562;28;20032;-66
2022/09/22 03:34:48;;;;;;;4.83;3.00;;;8.20;99.90;;;;;;5036692;28;20034;-65
2022/09/22 03:37:14;;;;;;;4.60;3.27;;;8.10;99.90;;;;;;5054049;28;20031;-66
2022/09/22 03:39:40;;;;;;;6.30;3.22;;;8.10;99.90;;;;;;5053284;28;20767;-67
2022/09/22 03:42:06;;;;;;;5.90;3.63;;;8.10;99.90;;;;;;5053964;28;20025;-67
2022/09/22 03:44:31;;;;;;;7.13;3.47;;;8.10;99.90;;;;;;5053556;28;20032;-67
2022/09/22 03:46:57;;;;;;;6.27;3.33;;;8.00;99.90;;;;;;5053340;28;20309;-66
2022/09/22 03:49:23;;;;;;;5.47;3.37;;;8.00;99.90;;;;;;5053359;28;20344;-67
2022/09/22 03:51:49;;;;;;;6.55;3.70;;;8.00;99.90;;;;;;5054075;28;20061;-67
2022/09/22 03:54:14;;;;;;;4.50;3.30;;;8.00;99.90;;;;;;5053240;28;20426;-67
2022/09/22 03:56:40;;;;;;;6.37;3.07;;;8.00;99.90;;;;;;5052956;28;20078;-66
2022/09/22 03:59:05;;;;;;;7.40;3.70;;;8.00;99.90;;;;;;5034903;28;20037;-67
2022/09/22 04:01:32;;;;;;;4.93;2.90;;;8.10;99.90;;;;;;5034966;28;20110;-66
2022/09/22 04:03:57;;;;;;;;;;;8.10;99.90;;;;;;5053170;28;20025;-66
2022/09/22 04:06:23;;;;;;;5.03;3.10;;;8.00;99.90;;;;;;5053185;28;19912;-67
2022/09/22 04:08:48;;;;;;;5.57;2.97;;;8.00;99.90;;;;;;5038646;28;20448;-66
2022/09/22 04:11:14;;;;;;;7.30;3.60;;;8.00;99.90;;;;;;5056937;28;20043;-65
2022/09/22 04:13:39;;;;;;;6.77;3.70;;;7.90;99.90;;;;;;5056653;28;20025;-65
2022/09/22 04:16:05;;;;;;;3.93;3.00;;;7.90;99.90;;;;;;5057093;28;20028;-66
2022/09/22 04:18:31;;;;;;;6.13;3.30;;;7.90;99.90;;;;;;5038631;28;20025;-65
2022/09/22 04:20:57;;;;;;;5.45;3.28;;;7.90;99.90;;;;;;5056776;28;20074;-65
2022/09/22 04:23:24;;;;;;;5.97;3.10;;;7.80;99.90;;;;;;5056401;28;20168;-66
2022/09/22 04:25:50;;;;;;;8.65;4.32;;;7.80;99.90;;;;;;5038413;28;20021;-65
2022/09/22 04:28:15;;;;;;;4.57;3.20;;;7.80;99.90;;;;;;5056224;28;20111;-67
2022/09/22 04:30:42;;;;;;;5.77;3.07;;;7.80;99.90;;;;;;5056225;28;20102;-66
2022/09/22 04:33:08;;;;;;;4.88;3.53;;;7.80;99.90;;;;;;5038337;28;20448;-65
2022/09/22 04:35:34;;;;;;;4.78;3.33;;;7.70;99.90;;;;;;5056163;28;20108;-66
2022/09/22 04:37:59;;;;;;;4.47;3.07;;;7.80;99.90;;;;;;5056022;28;20108;-67
2022/09/22 04:40:25;;;;;;;6.90;3.40;;;7.70;99.90;;;;;;5056506;28;20095;-66
2022/09/22 04:42:51;;;;;;;5.20;3.20;;;7.80;99.90;;;;;;5058706;28;20029;-66
2022/09/22 04:45:19;;;;;;;5.17;3.10;;;7.70;99.90;;;;;;5059533;28;20040;-66
2022/09/22 04:47:46;;;;;;;5.25;3.72;;;7.70;99.90;;;;;;5039956;28;20029;-66
2022/09/22 04:50:12;;;;;;;;;;;7.60;99.90;;;;;;5056354;28;20025;-67
2022/09/22 04:52:37;;;;;;;11.10;4.15;;;7.50;99.90;;;;;;5038003;28;19951;-66
2022/09/22 04:55:03;;;;;;;8.10;3.47;;;7.50;99.90;;;;;;5055824;28;20388;-66
2022/09/22 04:57:29;;;;;;;5.40;3.15;;;7.50;99.90;;;;;;5056231;28;20071;-64
2022/09/22 04:59:54;;;;;;;6.60;3.10;;;7.50;99.90;;;;;;5055527;28;20121;-66
2022/09/22 05:02:20;;;;;;;11.13;3.77;;;7.50;99.90;;;;;;5056171;28;20021;-65
2022/09/22 05:04:45;;;;;;;5.97;3.43;;;7.40;99.90;;;;;;5055758;28;20083;-65
2022/09/22 05:07:11;;;;;;;6.73;3.47;;;7.40;99.90;;;;;;5055872;28;20032;-67
2022/09/22 05:09:37;;;;;;;7.00;3.77;;;7.30;99.90;;;;;;5037554;28;20021;-66
2022/09/22 05:12:03;;;;;;;5.32;3.10;;;7.30;99.90;;;;;;5055481;28;20027;-66
2022/09/22 05:14:31;;;;;;;8.50;3.50;;;7.30;99.90;;;;;;5055244;28;20108;-67
2022/09/22 05:16:57;;;;;;;5.70;3.30;;;7.30;99.90;;;;;;5055354;28;20021;-66
2022/09/22 05:19:22;;;;;;;9.40;3.57;;;7.30;99.90;;;;;;5055095;28;20071;-67
2022/09/22 05:21:48;;;;;;;6.97;3.90;;;7.20;99.90;;;;;;5055437;28;20377;-67
2022/09/22 05:24:13;;;;;;;4.57;3.47;;;7.20;99.90;;;;;;5037322;28;20021;-67
2022/09/22 05:26:39;;;;;;;12.73;4.03;;;7.20;99.90;;;;;;5055314;28;20031;-66
2022/09/22 05:29:05;;;;;;;6.57;3.43;;;7.20;99.90;;;;;;5055023;28;20072;-66
2022/09/22 05:31:31;;;;;;;12.73;4.30;;;7.10;99.90;;;;;;5037128;28;20060;-66
2022/09/22 05:33:56;;;;;;;5.38;3.28;;;7.10;99.90;;;;;;5037266;28;20078;-66
2022/09/22 05:36:22;;;;;;;7.43;3.47;;;7.10;99.90;;;;;;5055009;28;20021;-66
2022/09/22 05:38:47;;;;;;;5.87;3.67;;;7.10;99.90;;;;;;5055027;28;20037;-65
2022/09/22 05:41:13;;;;;;;12.37;4.10;;;7.10;99.90;;;;;;5054167;28;20021;-66
2022/09/22 05:43:38;;;;;;;6.37;4.13;;;7.10;99.90;;;;;;5035649;28;20060;-66
2022/09/22 05:46:04;;;;;;;6.40;4.03;;;7.10;99.90;;;;;;5054818;28;20063;-65
2022/09/22 05:48:29;;;;;;;6.37;4.27;;;7.10;99.90;;;;;;5054787;28;20086;-64
2022/09/22 05:50:55;;;;;;;7.23;4.13;;;7.10;99.90;;;;;;5054550;28;20381;-65
2022/09/22 05:53:20;;;;;;;7.70;3.70;;;7.10;99.90;;;;;;5054146;28;20462;-63
2022/09/22 05:55:46;;;;;;;10.43;4.30;;;7.10;99.90;;;;;;5054400;28;20029;-64
2022/09/22 05:58:12;;;;;;;5.50;3.70;;;7.20;99.90;;;;;;5054378;28;20020;-66
2022/09/22 06:00:38;;;;;;;7.57;4.30;;;7.20;99.90;;;;;;5054752;28;20477;-66
2022/09/22 06:03:04;;;;;;;7.85;4.32;;;7.20;99.90;;;;;;5036725;28;20116;-68
2022/09/22 06:05:30;;;;;;;7.87;3.93;;;7.30;99.90;;;;;;5055040;28;20052;-66
2022/09/22 06:08:02;;;;;;;8.20;3.70;;;7.50;99.90;;;;;;5036313;28;20619;-66
2022/09/22 06:10:36;;;;;;;6.00;3.58;;;7.60;99.90;;;;;;5055178;28;20337;-64
2022/09/22 06:13:03;;;;;;;6.90;4.85;;;7.60;99.90;;;;;;5055481;28;20035;-65
2022/09/22 06:15:31;;;;;;;6.22;4.00;;;7.80;99.90;;;;;;5037197;28;20116;-65
2022/09/22 06:17:57;;;;;;;6.90;3.90;;;7.90;99.90;;;;;;5037375;28;20075;-66
2022/09/22 06:20:23;;;;;;;7.70;4.00;;;8.00;99.90;;;;;;5037230;28;20025;-66
2022/09/22 06:22:48;;;;;;;6.57;3.90;;;8.00;99.90;;;;;;5055183;28;20036;-65
2022/09/22 06:25:14;;;;;;;9.73;4.17;;;8.10;99.90;;;;;;5036918;28;20029;-65
2022/09/22 06:27:40;;;;;;;9.60;4.57;;;8.10;99.90;;;;;;5054814;28;20530;-67
2022/09/22 06:30:09;;;;;;;9.43;4.23;;;8.10;99.90;;;;;;5035488;28;20116;-63
2022/09/22 06:32:38;;;;;;;8.05;3.63;;;8.30;99.90;;;;;;5054279;28;20108;-63
2022/09/22 06:35:06;;;;;;;6.90;4.35;;;8.30;99.90;;;;;;5054135;28;20032;-64
2022/09/22 06:37:32;;;;;;;5.78;4.15;;;8.40;99.90;;;;;;5053804;28;20480;-64
2022/09/22 06:39:58;;;;;;;6.43;4.00;;;8.40;99.90;;;;;;5053709;28;20060;-64
2022/09/22 06:42:23;;;;;;;9.98;3.83;;;8.50;99.90;;;;;;5053669;28;20052;-65
2022/09/22 06:44:49;;;;;;;7.10;3.87;;;8.50;99.90;;;;;;5054224;28;20099;-64
2022/09/22 06:47:14;;;;;;;6.90;3.90;;;8.60;99.90;;;;;;5054169;28;20021;-64
2022/09/22 06:49:41;;;;;;;6.37;3.80;;;8.60;99.90;;;;;;5053542;28;20450;-63
2022/09/22 06:52:11;;;;;;;7.45;3.80;;;8.80;99.90;;;;;;5052828;28;20108;-64
2022/09/22 06:54:39;;;;;;;6.45;4.00;;;8.90;99.90;;;;;;5034664;28;20021;-63
2022/09/22 06:57:04;;;;;;;6.15;3.67;;;9.00;99.90;;;;;;5053458;28;20021;-64
2022/09/22 06:59:30;;;;;;;7.43;4.17;;;9.10;99.90;;;;;;5076004;22;20103;-63
2022/09/22 07:01:56;;;;;;;6.33;3.63;;;9.20;99.90;;;;;;5052792;28;20444;-66
2022/09/22 07:04:22;;;;;;;7.27;3.63;;;9.30;99.90;;;;;;5054179;28;20029;-64
2022/09/22 07:06:49;;;;;;;5.18;3.47;;;9.40;99.90;;;;;;5053544;28;20071;-64
2022/09/22 07:09:15;;;;;;;6.60;3.80;;;9.50;99.90;;;;;;5053129;28;20466;-64
2022/09/22 07:11:40;;;;;;;7.18;3.47;;;9.70;99.90;;;;;;5053574;28;20021;-64
2022/09/22 07:14:07;;;;;;;4.83;3.40;;;9.80;99.90;;;;;;5053039;28;20032;-64
2022/09/22 07:16:34;;;;;;;5.22;3.17;;;9.90;99.90;;;;;;5052884;28;20036;-64
2022/09/22 07:19:00;;;;;;;5.70;3.47;;;10.00;99.90;;;;;;5052961;28;20029;-64
2022/09/22 07:21:29;;;;;;;8.57;3.27;;;10.10;99.90;;;;;;5052800;28;20025;-64
2022/09/22 07:23:56;;;;;;;4.85;3.28;;;10.20;99.90;;;;;;5052677;28;20025;-64
2022/09/22 07:26:31;;;;;;;6.05;3.20;;;10.40;99.90;;;;;;5052757;28;20430;-65
2022/09/22 07:28:59;;;;;;;3.78;2.92;;;10.50;99.90;;;;;;5051384;28;20521;-64
2022/09/22 07:31:27;;;;;;;5.00;2.90;;;10.60;99.90;;;;;;5052953;28;20032;-64
2022/09/22 07:33:53;;;;;;;5.78;2.95;;;10.70;99.90;;;;;;5052704;28;20024;-64
2022/09/22 07:36:21;;;;;;;5.00;3.08;;;10.80;99.90;;;;;;5052523;28;20075;-64
2022/09/22 07:38:50;;;;;;;7.82;3.25;;;10.80;99.90;;;;;;5052654;28;20064;-64
2022/09/22 07:41:18;;;;;;;4.03;2.90;;;11.00;99.90;;;;;;5053346;28;20045;-64
2022/09/22 07:43:44;;;;;;;6.13;3.42;;;11.10;99.90;;;;;;5055554;28;20017;-64
2022/09/22 07:46:12;;;;;;;7.35;3.38;;;11.20;99.90;;;;;;5056956;28;20037;-64
2022/09/22 07:48:47;;;;;;;5.53;2.92;;;11.30;99.90;;;;;;5056584;28;20025;-64
2022/09/22 07:51:15;;;;;;;5.43;2.83;;;11.40;99.90;;;;;;5055190;28;20154;-64
2022/09/22 07:53:41;;;;;;;4.53;2.70;;;11.60;99.90;;;;;;5056363;28;20047;-64
2022/09/22 07:56:14;;;;;;;6.35;2.88;;;11.70;99.90;;;;;;5056472;28;20049;-64
2022/09/22 07:58:50;;;;;;;5.72;3.35;;;11.80;99.90;;;;;;5056670;28;20067;-64
2022/09/22 08:01:18;;;;;;;4.47;2.47;;;11.90;99.90;;;;;;5056461;28;20058;-64
2022/09/22 08:03:46;;;;;;;4.68;2.72;;;12.00;99.90;;;;;;5056318;28;20025;-64
2022/09/22 08:06:13;;;;;;;4.63;2.55;;;12.10;99.90;;;;;;5056543;28;20473;-64
2022/09/22 08:08:41;;;;;;;5.53;3.30;;;12.20;99.90;;;;;;5055175;28;20028;-64
2022/09/22 08:11:13;;;;;;;4.18;2.65;;;12.40;99.90;;;;;;5056693;28;20027;-64
2022/09/22 08:13:49;;;;;;;6.07;2.55;;;12.50;99.90;;;;;;5056411;28;20029;-64
2022/09/22 08:16:17;;;;;;;4.40;2.83;;;12.50;99.90;;;;;;5055058;28;20017;-63
2022/09/22 08:18:43;;;;;;;5.28;2.85;;;12.70;99.90;;;;;;5054989;28;20025;-64
2022/09/22 08:21:08;;;;;;;4.13;2.35;;;12.70;99.90;;;;;;5056582;28;20044;-65
2022/09/22 08:23:36;;;;;;;4.23;2.50;;;12.80;99.90;;;;;;5056092;28;20029;-64
2022/09/22 08:26:07;;;;;;;5.03;2.45;;;12.80;99.90;;;;;;5056568;28;20247;-65
2022/09/22 08:28:34;;;;;;;3.15;2.10;;;12.90;99.90;;;;;;5056392;28;20078;-65
2022/09/22 08:31:00;;;;;;;4.07;2.15;;;13.10;99.90;;;;;;5056718;28;20471;-64
2022/09/22 08:33:26;;;;;;;4.70;2.97;;;13.20;99.90;;;;;;5056750;28;20035;-64
2022/09/22 08:35:57;;;;;;;4.22;2.10;;;13.30;99.90;;;;;;5056717;28;20025;-65
2022/09/22 08:38:24;;;;;;;5.50;2.83;;;13.50;99.90;;;;;;5057666;28;20025;-65
2022/09/22 08:41:06;;;;;;;5.05;2.30;;;13.70;99.90;;;;;;5058064;28;20108;-65
2022/09/22 08:43:32;;;;;;;3.85;1.92;;;13.90;99.90;;;;;;5055261;28;20059;-64
2022/09/22 08:46:00;;;;;;;;;;;14.10;99.90;;;;;;5056184;28;20025;-64
2022/09/22 08:54:08;;;;;;;2.88;1.75;;;14.80;99.90;;;;;;5055152;28;20028;-65
2022/09/22 08:57:10;;;;;;;3.45;1.67;;;15.30;99.90;;;;;;5055716;28;20021;-65
2022/09/22 08:59:43;;;;;;;2.08;1.45;;;17.70;99.90;;;;;;5055146;28;20060;-65
2022/09/22 09:02:37;;;;;;;3.72;2.10;;;20.90;94.90;;;;;;5055713;28;20032;-65
2022/09/22 09:05:33;;;;;;;3.85;1.65;;;23.30;89.20;;;;;;5055677;28;20051;-65
2022/09/22 09:08:29;;;;;;;2.85;1.80;;;24.60;81.20;;;;;;5055237;28;20104;-64
2022/09/22 09:11:32;;;;;;;3.42;1.80;;;25.80;76.30;;;;;;5055413;28;20025;-65
2022/09/22 09:14:06;;;;;;;4.10;1.70;;;26.20;73.90;;;;;;5054858;28;20025;-65
2022/09/22 09:16:51;;;;;;;2.92;1.92;;;26.50;71.20;;;;;;5055192;28;20028;-65
2022/09/22 09:19:43;;;;;;;2.47;1.80;;;26.90;69.60;;;;;;5055084;28;20035;-63
2022/09/22 09:22:26;;;;;;;3.50;1.83;;;26.50;69.90;;;;;;5055318;28;20025;-65
2022/09/22 09:25:14;;;;;;;2.60;1.70;;;27.00;68.30;;;;;;5055324;28;20045;-65
2022/09/22 09:27:42;;;;;;;1.85;1.45;;;27.10;68.20;;;;;;5054786;28;20021;-65
2022/09/22 09:30:21;;;;;;;4.35;1.60;;;28.00;66.10;;;;;;5055141;28;20028;-65
2022/09/22 09:32:59;;;;;;;3.20;1.42;;;28.50;65.20;;;;;;5053743;28;20059;-65
2022/09/22 09:35:44;;;;;;;2.63;1.52;;;27.20;66.40;;;;;;5054836;28;20082;-65
2022/09/22 09:38:13;;;;;;;2.08;1.63;;;28.00;64.90;;;;;;5054971;28;20021;-65
2022/09/22 09:40:39;;;;;;;1.88;1.35;;;27.80;64.30;;;;;;5054531;28;20032;-65
2022/09/22 09:43:06;;;;;;;4.03;1.60;;;27.10;64.80;;;;;;5054417;28;20021;-65
2022/09/22 09:45:41;;;;;;;2.60;1.40;;;27.30;64.30;;;;;;5053078;28;20120;-65
2022/09/22 09:48:33;;;;;;;2.22;1.23;;;27.90;64.40;;;;;;5054556;28;20103;-65
2022/09/22 09:51:05;;;;;;;3.30;1.50;;;27.10;63.70;;;;;;5032164;28;20426;-65
2022/09/22 09:53:42;;;;;;;3.08;1.40;;;27.00;64.10;;;;;;5032691;28;20050;-65
2022/09/22 09:56:23;;;;;;;3.00;1.50;;;27.10;64.40;;;;;;5032604;28;20037;-65
2022/09/22 10:01:47;;;;;;;3.22;1.52;;;27.20;63.10;;;;;;5032845;28;20067;-66
2022/09/22 10:04:18;;;;;;;6.20;2.83;;;27.60;62.60;;;;;;5031691;28;20065;-65
2022/09/22 10:06:45;;;;;;;2.97;1.42;;;28.10;61.70;;;;;;5015889;28;20033;-65
2022/09/22 10:09:21;;;;;;;2.45;1.60;;;28.70;61.30;;;;;;5032416;28;20040;-65
2022/09/22 10:11:57;;;;;;;2.50;1.35;;;28.00;60.90;;;;;;5032089;28;20033;-64
2022/09/22 10:14:26;;;;;;;3.60;1.23;;;28.00;60.70;;;;;;5032076;28;20039;-65
2022/09/22 10:16:52;;;;;;;2.90;1.10;;;28.30;60.30;;;;;;5031667;28;20067;-64
2022/09/22 10:19:18;;;;;;;1.40;1.17;;;27.90;60.20;;;;;;5031108;28;20025;-65
2022/09/22 10:21:43;;;;;;;;;;;27.40;60.00;;;;;;5032119;28;20464;-65
2022/09/22 10:24:36;;;;;;;2.65;1.45;;;27.70;60.70;;;;;;5032096;28;19931;-65
2022/09/22 10:27:02;;;;;;;2.55;1.23;;;26.90;60.90;;;;;;5031491;28;20581;-64
2022/09/22 10:29:27;;;;;;;2.33;1.05;;;26.40;61.00;;;;;;5053617;28;20033;-64
2022/09/22 10:32:14;;;;;;;6.55;1.00;;;26.20;62.10;;;;;;5053534;28;20497;-64
2022/09/22 10:34:49;;;;;;;2.45;1.00;;;27.10;61.10;;;;;;5054087;28;20078;-65
2022/09/22 10:37:18;;;;;;;1.27;0.80;;;26.60;60.90;;;;;;5054568;28;20492;-64
2022/09/22 10:39:52;;;;;;;1.70;1.10;;;26.10;61.30;;;;;;5052063;28;20029;-64
2022/09/22 10:42:36;;;;;;;1.20;1.10;;;26.40;62.30;;;;;;5053662;28;20476;-64
2022/09/22 10:45:10;;;;;;;1.80;1.00;;;27.10;60.80;;;;;;5053488;28;20041;-65
2022/09/22 10:48:12;;;;;;;2.30;0.85;;;27.50;60.30;;;;;;5053332;28;20096;-64
2022/09/22 10:50:56;;;;;;;2.17;1.17;;;27.60;60.30;;;;;;5044921;28;20036;-63
2022/09/22 10:53:45;;;;;;;4.43;1.20;;;28.50;60.00;;;;;;5051806;28;20021;-63
2022/09/22 10:56:42;;;;;;;3.92;1.30;;;29.30;58.80;;;;;;5053624;28;20043;-64
2022/09/22 10:59:32;;;;;;;1.80;1.27;;;28.10;58.70;;;;;;5053332;28;20481;-65
2022/09/22 11:02:04;;;;;;;4.10;2.58;;;25.10;61.60;;;;;;5051810;28;20033;-65
2022/09/22 11:05:07;;;;;;;3.13;1.52;;;22.90;65.60;;;;;;5053199;28;20057;-65
2022/09/22 11:14:08;;;;;;;5.10;2.35;;;19.40;75.00;;;;;;5010486;28;20080;-66
2022/09/22 11:16:39;;;;;;;4.80;2.28;;;19.30;75.20;;;;;;5047158;28;20041;-66
2022/09/22 11:19:29;;;;;;;2.10;1.30;;;19.10;77.20;;;;;;5053691;28;20465;-64
2022/09/22 11:22:18;;;;;;;6.30;1.63;;;19.00;76.50;;;;;;5052488;28;20071;-64
2022/09/22 11:25:20;;;;;;;4.78;1.50;;;19.00;76.90;;;;;;5050723;28;20044;-65
2022/09/22 11:27:55;;;;;;;2.97;1.50;;;18.70;77.00;;;;;;5052159;28;20048;-64
2022/09/22 11:30:21;;;;;;;1.98;1.20;;;18.50;78.00;;;;;;5053020;28;20592;-65
2022/09/22 11:33:26;;;;;;;5.28;1.65;;;18.40;78.10;;;;;;5053009;28;20477;-64
2022/09/22 11:36:13;;;;;;;3.67;1.30;;;18.30;78.20;;;;;;5051255;28;20072;-65
2022/09/22 11:39:14;;;;;;;4.35;1.42;;;18.20;78.30;;;;;;5052613;28;20366;-64
2022/09/22 11:41:49;;;;;;;3.28;1.50;;;18.20;79.10;;;;;;5043950;28;20029;-64
2022/09/22 11:44:41;;;;;;;4.03;1.20;;;18.20;78.70;;;;;;5052945;28;20021;-62
2022/09/22 11:47:42;;;;;;;2.38;1.48;;;18.10;78.50;;;;;;5052637;28;20098;-64
2022/09/22 11:50:38;;;;;;;3.03;1.33;;;18.10;78.20;;;;;;5052993;28;20135;-63
2022/09/22 11:53:23;;;;;;;3.42;1.52;;;18.20;77.90;;;;;;5052492;28;20083;-63
2022/09/22 11:56:20;;;;;;;4.13;1.20;;;18.20;77.80;;;;;;5051393;28;20080;-63
2022/09/22 11:58:47;;;;;;;4.10;1.27;;;18.20;77.10;;;;;;5052553;28;20033;-62
2022/09/22 12:01:19;;;;;;;3.47;1.10;;;18.20;77.70;;;;;;5052692;28;20028;-63
2022/09/22 12:03:56;;;;;;;1.80;1.10;;;18.40;77.40;;;;;;5052733;28;20151;-65
2022/09/22 12:06:28;;;;;;;2.38;1.35;;;18.40;76.60;;;;;;5052813;28;20021;-62
2022/09/22 12:09:02;;;;;;;3.33;0.90;;;18.50;76.00;;;;;;5052838;28;20023;-64
2022/09/22 12:11:33;;;;;;;3.42;1.52;;;18.40;75.20;;;;;;5052451;28;20021;-63
2022/09/22 12:13:59;;;;;;;2.05;1.30;;;18.40;75.80;;;;;;5052119;28;20523;-65
2022/09/22 12:16:31;;;;;;;;;;;18.50;76.10;;;;;;5051468;28;20432;-65
2022/09/22 12:19:05;;;;;;;2.70;1.20;;;18.50;76.10;;;;;;5052529;28;19905;-65
2022/09/22 12:21:50;;;;;;;2.22;1.35;;;18.60;76.50;;;;;;5052395;28;20040;-64
2022/09/22 12:24:15;;;;;;;2.42;1.15;;;18.70;76.50;;;;;;5051038;28;20197;-64
2022/09/22 12:26:45;;;;;;;4.57;1.43;;;18.80;76.40;;;;;;5052338;28;20063;-65
2022/09/22 12:29:13;;;;;;;3.30;1.10;;;18.90;76.80;;;;;;5055113;28;20731;-65
2022/09/22 12:31:47;;;;;;;3.90;1.30;;;18.90;76.30;;;;;;5056225;28;20037;-64
2022/09/22 12:34:23;;;;;;;2.10;1.20;;;18.80;76.10;;;;;;5055893;28;20491;-65
2022/09/22 12:36:58;;;;;;;4.37;1.27;;;18.90;76.30;;;;;;5056696;28;20021;-64
2022/09/22 12:39:29;;;;;;;2.35;1.10;;;18.90;75.70;;;;;;5056533;28;20260;-65
2022/09/22 12:41:58;;;;;;;2.55;1.33;;;18.80;75.40;;;;;;5056514;28;20103;-65
2022/09/22 12:44:30;;;;;;;3.40;1.25;;;18.70;75.60;;;;;;5056019;28;20025;-65
2022/09/22 12:47:03;;;;;;;2.33;1.30;;;18.70;75.60;;;;;;5055972;28;20120;-65
2022/09/22 12:49:29;;;;;;;2.40;0.98;;;18.70;75.30;;;;;;5056113;28;20036;-64
2022/09/22 12:51:55;;;;;;;3.22;1.20;;;18.70;75.80;;;;;;5056356;28;20074;-64
2022/09/22 12:54:21;;;;;;;5.03;1.60;;;18.80;76.30;;;;;;5056083;28;20029;-64
2022/09/22 12:56:55;;;;;;;2.25;1.30;;;18.90;75.70;;;;;;5055571;28;20018;-64
2022/09/22 12:59:45;;;;;;;2.53;1.13;;;19.00;75.70;;;;;;5055728;28;20438;-64
2022/09/22 13:02:12;;;;;;;4.90;2.00;;;19.10;75.40;;;;;;5053561;28;20033;-64
2022/09/22 13:04:41;;;;;;;4.78;1.55;;;19.10;75.00;;;;;;5055719;28;20029;-63
2022/09/22 13:07:35;;;;;;;2.80;1.23;;;19.00;74.60;;;;;;5055444;28;20082;-64
2022/09/22 13:10:19;;;;;;;2.83;1.30;;;19.00;75.10;;;;;;5055530;28;20033;-64
2022/09/22 13:13:21;;;;;;;1.77;1.10;;;19.10;75.30;;;;;;5055212;28;20029;-64
2022/09/22 13:15:48;;;;;;;1.15;1.00;;;19.20;75.60;;;;;;5055139;28;20075;-64
2022/09/22 13:18:37;;;;;;;2.53;1.25;;;19.20;74.80;;;;;;5054963;28;20013;-64
2022/09/22 13:21:11;;;;;;;1.48;1.00;;;19.20;75.00;;;;;;5055139;28;20033;-64
2022/09/22 13:24:01;;;;;;;2.10;1.08;;;19.20;75.20;;;;;;5055210;28;20057;-64
2022/09/22 13:26:38;;;;;;;3.78;1.20;;;19.40;74.40;;;;;;5055130;28;20100;-63
2022/09/22 13:29:18;;;;;;;1.50;0.80;;;19.40;72.80;;;;;;5053266;28;20032;-63
2022/09/22 13:31:45;;;;;;;3.20;1.10;;;19.40;73.10;;;;;;5055119;28;20032;-63
2022/09/22 13:34:17;;;;;;;3.60;1.60;;;19.50;73.40;;;;;;5054578;28;20036;-63